Loreto, Loreto International Airport (MMLT)

NameLoreto International Airport
CityLoreto
CountryMexico
ICAOMMLT
IATALTO
Altitude10 m
CoordinatesGoogle Map
Live Air TrafficLiveATC.net
METARMMLT 251654Z 14006KT 10SM FEW200 29/21 A2984 RMK 8/005
2020-04-25 16:54:00 Wind: Southeast (140°) 3.09 m/s - Visibility: 16093.4 m - Temperature: 29 °C - Dew point: 21 °C - Humidity: 62% - Pressure: 1010.5 hPa

Sorry, no flights used the airport in this database.